Time;durP1;ratioP1;P1;durP2;ratioP2;P2;SDS_P1;SDS_P2;PMS_P1;PMS_P2;Temp;Humidity;BMP_temperature;BMP_pressure;BME280_temperature;BME280_humidity;BME280_pressure;Samples;Min_cycle;Max_cycle;Signal;HPM_P1;HPM_P2
2022/12/30 00:00:38;;;;;;;166.20;40.80;;;;;;;4.94;82.60;98167.78;4537896;31;20099;-79
2022/12/30 00:03:05;;;;;;;194.00;41.88;;;;;;;4.71;84.18;98171.63;4538060;31;20109;-79
2022/12/30 00:05:32;;;;;;;197.55;41.85;;;;;;;5.66;79.31;98168.94;4537432;31;20086;-78
2022/12/30 00:07:59;;;;;;;219.25;46.10;;;;;;;5.29;79.07;98166.25;4538123;31;20106;-78
2022/12/30 00:10:26;;;;;;;;;;;;;;;4.71;83.75;98171.63;4537938;31;20060;-79
2022/12/30 00:35:13;;;;;;;;;;;;;;;5.95;77.22;98167.47;4526211;31;20104;-79
2022/12/30 00:37:40;;;;;;;194.15;38.70;;;;;;;4.70;82.91;98158.00;4537913;31;19967;-79
2022/12/30 00:40:13;;;;;;;184.75;39.63;;;;;;;5.54;79.04;98166.63;4537308;31;20122;-79
2022/12/30 00:45:26;;;;;;;190.48;38.55;;;;;;;4.94;81.64;98170.34;4537780;31;20087;-79
2022/12/30 00:47:53;;;;;;;188.40;41.00;;;;;;;6.61;75.29;98169.34;4537067;31;20102;-78
2022/12/30 00:56:09;;;;;;;204.20;41.33;;;;;;;6.28;75.49;98173.56;4536909;31;20159;-79
2022/12/30 00:58:36;;;;;;;196.93;40.92;;;;;;;6.30;75.97;98169.25;4537533;31;20102;-79
2022/12/30 01:01:03;;;;;;;;;;;;;;;6.53;74.49;98174.66;4537246;31;20481;-79
2022/12/30 01:03:30;;;;;;;273.77;45.38;;;;;;;6.43;75.09;98170.63;4537535;31;19979;-79
2022/12/30 01:05:57;;;;;;;236.12;43.05;;;;;;;5.61;78.73;98165.59;4537218;31;20071;-78
2022/12/30 01:08:24;;;;;;;266.73;45.70;;;;;;;4.47;83.54;98155.84;4537284;31;20147;-79
2022/12/30 01:10:50;;;;;;;;;;;;;;;5.33;81.25;98156.81;4537310;31;20525;-79
2022/12/30 01:13:17;;;;;;;190.02;38.17;;;;;;;5.92;78.21;98163.25;4537499;31;19974;-79
2022/12/30 01:15:44;;;;;;;201.95;40.58;;;;;;;5.93;77.73;98164.09;4536755;31;20159;-79
2022/12/30 01:18:11;;;;;;;;;;;;;;;5.47;79.33;98171.00;4537431;31;20184;-79
2022/12/30 01:20:38;;;;;;;253.23;42.13;;;;;;;5.27;80.51;98162.06;4536820;31;19962;-79
2022/12/30 01:23:04;;;;;;;224.15;41.00;;;;;;;5.80;79.60;98163.50;4537762;31;20133;-79
2022/12/30 01:25:31;;;;;;;;;;;;;;;5.89;78.56;98165.88;4537499;31;20095;-79
2022/12/30 01:27:58;;;;;;;270.30;44.20;;;;;;;5.07;83.07;98155.59;4536896;31;19979;-79
2022/12/30 01:30:25;;;;;;;;;;;;;;;5.95;78.98;98155.50;4537415;31;20079;-79
2022/12/30 01:32:51;;;;;;;216.12;39.33;;;;;;;6.08;77.65;98156.09;4537392;31;19970;-79
2022/12/30 01:35:18;;;;;;;;;;;;;;;4.83;82.95;98154.34;4536991;31;20087;-79
2022/12/30 01:37:45;;;;;;;305.75;45.15;;;;;;;5.34;79.70;98155.94;4537281;31;20313;-79
2022/12/30 01:40:12;;;;;;;;;;;;;;;4.74;84.29;98146.84;4537422;31;20059;-79
2022/12/30 01:42:40;;;;;;;259.55;41.78;;;;;;;5.98;78.49;98152.06;4536933;31;19959;-79
2022/12/30 01:45:24;;;;;;;316.17;45.60;;;;;;;6.24;77.34;98138.63;4537162;31;20099;-79
2022/12/30 01:47:59;;;;;;;364.42;49.67;;;;;;;7.38;72.48;98140.75;4522447;31;20084;-79
2022/12/30 01:50:33;;;;;;;329.80;44.20;;;;;;;7.49;71.81;98135.31;4536770;31;20231;-79
2022/12/30 01:53:07;;;;;;;307.17;45.40;;;;;;;7.14;72.56;98131.19;4522729;31;20103;-79
2022/12/30 01:55:39;;;;;;;276.98;41.97;;;;;;;7.92;69.76;98131.47;4522591;31;20080;-79
2022/12/30 01:58:11;;;;;;;347.23;47.83;;;;;;;8.42;66.53;98131.63;4522769;31;20087;-79
2022/12/30 02:00:37;;;;;;;352.85;45.85;;;;;;;7.77;68.28;98125.06;4536699;31;20131;-79
2022/12/30 02:03:06;;;;;;;329.05;44.63;;;;;;;8.04;68.00;98123.38;4536459;31;20204;-79
2022/12/30 02:05:36;;;;;;;297.70;43.60;;;;;;;8.13;68.07;98128.22;4537022;31;20074;-79
2022/12/30 02:08:18;;;;;;;326.98;45.88;;;;;;;8.45;66.96;98132.38;4521633;31;20102;-79
2022/12/30 02:10:51;;;;;;;354.17;44.25;;;;;;;9.35;62.11;98131.78;4522059;31;20055;-79
2022/12/30 02:13:20;;;;;;;293.17;42.53;;;;;;;9.09;63.33;98132.75;4522385;31;20107;-79
2022/12/30 02:16:02;;;;;;;202.52;39.15;;;;;;;8.90;63.70;98127.41;4522367;31;20100;-79
2022/12/30 02:18:44;;;;;;;386.85;47.85;;;;;;;9.12;62.94;98126.63;4522151;31;20102;-79
2022/12/30 02:21:29;;;;;;;349.95;46.15;;;;;;;8.89;63.74;98124.88;4536574;31;20078;-79
2022/12/30 02:24:33;;;;;;;322.37;46.85;;;;;;;8.69;64.50;98130.69;4536513;31;20068;-79
2022/12/30 02:27:16;;;;;;;260.63;41.60;;;;;;;7.53;67.99;98122.31;4536420;31;20099;-79
2022/12/30 02:30:05;;;;;;;359.83;45.03;;;;;;;7.08;72.12;98124.47;4536404;31;20080;-79
2022/12/30 02:32:47;;;;;;;327.25;44.40;;;;;;;7.46;70.55;98133.69;4521559;31;20425;-79
2022/12/30 02:35:36;;;;;;;255.05;40.85;;;;;;;7.18;71.44;98125.06;4536428;31;20103;-79
2022/12/30 02:38:37;;;;;;;392.02;47.53;;;;;;;7.06;72.77;98125.41;4521925;31;21233;-79
2022/12/30 02:46:54;;;;;;;295.15;42.53;;;;;;;8.52;66.61;98127.88;4536207;31;20699;-79
2022/12/30 02:49:23;;;;;;;270.12;40.83;;;;;;;8.60;65.70;98123.28;4521722;31;20486;-79
2022/12/30 02:54:36;;;;;;;280.33;40.75;;;;;;;8.98;63.20;98129.72;4524178;31;20079;-79
2022/12/30 02:57:27;;;;;;;254.65;39.10;;;;;;;8.49;64.63;98118.50;4535971;31;20060;-79
2022/12/30 03:06:22;;;;;;;244.37;37.45;;;;;;;8.90;63.80;98105.97;4454588;32;20146;-79
2022/12/30 03:08:56;;;;;;;171.25;34.97;;;;;;;9.44;61.35;98117.75;4455243;32;20244;-79
2022/12/30 03:11:23;;;;;;;228.45;36.97;;;;;;;8.89;63.12;98123.16;4507138;31;20449;-79
2022/12/30 03:13:55;;;;;;;264.70;38.47;;;;;;;9.02;62.89;98122.72;4521498;31;20140;-79
2022/12/30 03:16:29;;;;;;;202.68;35.42;;;;;;;9.06;62.83;98116.59;4536030;31;20702;-79
2022/12/30 03:18:59;;;;;;;271.25;38.88;;;;;;;9.00;62.77;98117.63;4521751;31;20462;-79
2022/12/30 03:21:27;;;;;;;262.12;41.85;;;;;;;8.89;63.11;98112.84;4537487;31;20109;-79
2022/12/30 03:29:35;;;;;;;254.32;38.03;;;;;;;9.21;61.95;98103.97;4538443;31;20104;-79
2022/12/30 03:32:04;;;;;;;248.00;37.95;;;;;;;9.38;61.48;98108.53;4538259;31;20083;-79
2022/12/30 03:34:31;;;;;;;307.70;40.22;;;;;;;8.93;62.16;98101.56;4523374;31;20091;-79
2022/12/30 03:37:03;;;;;;;318.83;43.38;;;;;;;8.07;66.02;98107.84;4537611;31;20136;-79
2022/12/30 03:39:39;;;;;;;279.65;41.78;;;;;;;8.15;66.67;98105.88;4537751;31;20418;-79
2022/12/30 03:42:06;;;;;;;317.98;43.78;;;;;;;6.90;72.08;98105.28;4523394;31;20226;-79
2022/12/30 03:44:35;;;;;;;257.77;38.80;;;;;;;7.77;69.29;98113.06;4523536;31;20151;-79
2022/12/30 03:47:01;;;;;;;314.10;42.40;;;;;;;7.59;70.10;98105.06;4537564;31;20126;-79
2022/12/30 03:49:28;;;;;;;;;;;;;;;7.91;68.67;98102.38;4538294;31;20064;-79
2022/12/30 03:51:55;;;;;;;265.05;38.58;;;;;;;7.97;67.83;98089.31;4538263;31;20015;-79
2022/12/30 03:54:28;;;;;;;270.65;38.20;;;;;;;8.29;66.58;98103.69;4538297;31;20455;-79
2022/12/30 03:56:55;;;;;;;;;;;;;;;8.22;66.16;98109.94;4537928;31;20070;-79
2022/12/30 03:59:22;;;;;;;247.90;36.25;;;;;;;8.27;66.28;98109.78;4538152;31;19970;-79
2022/12/30 04:01:49;;;;;;;305.80;40.63;;;;;;;7.66;68.64;98107.41;4537837;31;20087;-79
2022/12/30 04:04:19;;;;;;;270.45;38.55;;;;;;;6.29;73.97;98112.03;4537409;31;20095;-79
2022/12/30 04:06:45;;;;;;;271.52;38.42;;;;;;;6.75;75.95;98110.84;4537730;31;20437;-79
2022/12/30 04:09:12;;;;;;;239.82;36.53;;;;;;;7.34;71.27;98112.66;4537518;31;20113;-79
2022/12/30 04:11:39;;;;;;;224.27;34.22;;;;;;;8.18;67.15;98105.78;4537673;31;20118;-79
2022/12/30 04:14:06;;;;;;;;;;;;;;;8.48;65.54;98103.13;4538120;31;20760;-79
2022/12/30 04:16:33;;;;;;;169.18;33.17;;;;;;;9.09;62.63;98111.31;4537445;31;20015;-79
2022/12/30 04:19:00;;;;;;;183.50;31.90;;;;;;;8.74;63.50;98115.97;4537875;31;20122;-79
2022/12/30 04:21:26;;;;;;;;;;;;;;;8.74;64.06;98112.56;4538015;31;20064;-79
2022/12/30 04:23:53;;;;;;;222.65;34.20;;;;;;;8.00;66.20;98114.94;4537426;31;19971;-79
2022/12/30 04:26:20;;;;;;;;;;;;;;;8.37;64.73;98114.59;4538006;31;20080;-79
2022/12/30 04:28:47;;;;;;;182.85;31.30;;;;;;;8.35;64.21;98110.41;4537902;31;19971;-79
2022/12/30 04:31:13;;;;;;;;;;;;;;;8.17;65.29;98113.53;4537271;31;20064;-79
2022/12/30 04:33:40;;;;;;;159.02;31.05;;;;;;;8.32;64.74;98110.50;4537886;31;20470;-79
2022/12/30 04:36:07;;;;;;;;;;;;;;;8.85;63.13;98116.44;4537846;31;20079;-79
2022/12/30 04:38:34;;;;;;;110.32;29.50;;;;;;;8.89;62.50;98122.31;4537685;31;19997;-79
2022/12/30 04:41:01;;;;;;;184.70;34.22;;;;;;;8.94;62.36;98108.41;4537774;31;20099;-79
2022/12/30 04:43:28;;;;;;;151.32;31.02;;;;;;;8.95;62.37;98115.22;4537700;31;20102;-79
2022/12/30 04:45:55;;;;;;;138.37;31.52;;;;;;;9.09;61.39;98114.72;4537052;31;20135;-79
2022/12/30 04:48:22;;;;;;;194.80;32.97;;;;;;;9.13;61.60;98121.44;4537674;31;20148;-79
2022/12/30 04:50:49;;;;;;;111.37;29.55;;;;;;;9.31;60.43;98121.69;4537961;31;20172;-79
2022/12/30 04:53:16;;;;;;;136.20;31.02;;;;;;;9.41;59.57;98120.44;4537909;31;20087;-79
2022/12/30 04:55:42;;;;;;;;;;;;;;;9.22;60.45;98125.41;4537982;31;20102;-79
2022/12/30 04:58:09;;;;;;;132.20;28.70;;;;;;;9.21;60.41;98128.88;4537459;31;20615;-79
2022/12/30 05:00:36;;;;;;;116.78;30.12;;;;;;;9.14;60.87;98122.28;4537480;31;20103;-79
2022/12/30 05:03:03;;;;;;;153.73;31.17;;;;;;;9.27;60.66;98116.66;4538098;31;20105;-79
2022/12/30 05:05:30;;;;;;;150.20;30.40;;;;;;;9.25;60.39;98125.28;4537348;31;20476;-79
2022/12/30 05:07:57;;;;;;;;;;;;;;;9.71;58.76;98115.88;4538052;31;20099;-79
2022/12/30 05:10:24;;;;;;;108.32;27.17;;;;;;;9.33;59.56;98118.13;4537472;31;19999;-79
2022/12/30 05:12:51;;;;;;;;;;;;;;;9.25;59.93;98118.44;4537499;31;20087;-79
2022/12/30 05:15:17;;;;;;;101.30;28.17;;;;;;;9.23;60.14;98122.78;4537713;31;19967;-79
2022/12/30 05:17:44;;;;;;;158.37;31.35;;;;;;;9.29;60.00;98134.59;4537546;31;20099;-79
2022/12/30 05:20:11;;;;;;;130.57;30.75;;;;;;;9.32;60.03;98129.34;4537231;31;20095;-79
2022/12/30 05:22:38;;;;;;;130.35;32.03;;;;;;;9.33;59.92;98137.91;4537704;31;20097;-79
2022/12/30 05:27:51;;;;;;;128.02;30.08;;;;;;;9.38;60.08;98142.00;4537032;31;20116;-79
2022/12/30 05:30:18;;;;;;;;;;;;;;;9.41;59.79;98143.63;4537727;31;20114;-79
2022/12/30 05:32:45;;;;;;;102.57;30.15;;;;;;;9.45;59.64;98152.91;4537693;31;20029;-79
2022/12/30 05:35:12;;;;;;;151.90;34.17;;;;;;;9.51;59.53;98147.53;4537081;31;20115;-79
2022/12/30 05:37:39;;;;;;;94.05;28.90;;;;;;;9.57;59.26;98142.19;4537374;31;20106;-79
2022/12/30 05:40:06;;;;;;;108.72;30.75;;;;;;;9.58;58.88;98143.84;4537169;31;20099;-79
2022/12/30 05:42:33;;;;;;;127.32;30.42;;;;;;;9.64;58.43;98137.62;4536996;31;20087;-79
2022/12/30 05:45:00;;;;;;;100.55;30.17;;;;;;;9.47;58.65;98144.25;4537189;31;20084;-79
2022/12/30 05:47:27;;;;;;;171.52;32.85;;;;;;;9.64;57.77;98155.66;4536771;31;20096;-79
2022/12/30 05:49:54;;;;;;;;;;;;;;;9.30;58.38;98153.47;4537792;31;20091;-79
2022/12/30 05:52:21;;;;;;;86.15;29.27;;;;;;;9.33;58.04;98149.03;4537470;31;19967;-79
2022/12/30 05:54:48;;;;;;;123.53;31.42;;;;;;;9.23;58.48;98151.09;4537552;31;20593;-79
2022/12/30 05:57:15;;;;;;;;;;;;;;;9.22;58.61;98144.28;4537321;31;20087;-79
2022/12/30 05:59:42;;;;;;;75.28;28.90;;;;;;;9.19;58.72;98146.12;4537424;31;19978;-79
2022/12/30 06:02:09;;;;;;;93.05;29.92;;;;;;;9.03;59.18;98144.97;4537205;31;20134;-79
2022/12/30 06:04:36;;;;;;;83.97;29.40;;;;;;;9.14;58.94;98146.28;4537340;31;20102;-79
2022/12/30 06:07:03;;;;;;;69.30;29.23;;;;;;;9.10;59.55;98142.13;4537313;31;20100;-79
2022/12/30 06:09:30;;;;;;;65.80;28.75;;;;;;;9.07;59.19;98149.13;4536576;31;20100;-79
2022/12/30 06:11:56;;;;;;;79.62;31.27;;;;;;;8.96;59.40;98152.94;4537381;31;20147;-79
2022/12/30 06:14:23;;;;;;;;;;;;;;;8.76;60.98;98155.34;4537311;31;20147;-79
2022/12/30 06:16:50;;;;;;;65.35;29.70;;;;;;;8.42;61.64;98160.75;4536307;31;19970;-79
2022/12/30 06:19:17;;;;;;;63.70;27.90;;;;;;;8.59;61.31;98166.16;4537134;31;20366;-79
2022/12/30 06:21:44;;;;;;;66.78;30.05;;;;;;;8.99;59.74;98165.69;4536902;31;20068;-79
2022/12/30 06:24:10;;;;;;;;;;;;;;;8.81;60.49;98165.47;4537207;31;20101;-79
2022/12/30 06:26:37;;;;;;;67.10;28.17;;;;;;;8.86;60.48;98166.16;4537143;31;20567;-79
2022/12/30 06:29:04;;;;;;;;;;;;;;;8.97;60.10;98171.78;4537288;31;20411;-79
2022/12/30 06:31:32;;;;;;;62.25;26.52;;;;;;;8.84;60.70;98171.37;4536427;31;19975;-79
2022/12/30 06:33:59;;;;;;;61.75;27.90;;;;;;;8.64;61.98;98166.03;4536974;31;20056;-79
2022/12/30 06:36:25;;;;;;;;;;;;;;;8.92;60.22;98161.63;4536656;31;20092;-79
2022/12/30 06:38:52;;;;;;;58.87;27.33;;;;;;;9.21;59.43;98170.09;4536789;31;20113;-79
2022/12/30 06:41:19;;;;;;;;;;;;;;;8.55;61.70;98171.47;4536801;31;20086;-79
2022/12/30 06:43:46;;;;;;;58.90;26.23;;;;;;;8.73;61.67;98176.03;4522204;31;19963;-79
2022/12/30 06:46:13;;;;;;;;;;;;;;;8.66;62.50;98185.66;4537028;31;20109;-79
2022/12/30 06:48:39;;;;;;;54.20;25.33;;;;;;;8.00;64.64;98183.47;4536403;31;19982;-79
2022/12/30 06:51:06;;;;;;;;;;;;;;;8.52;63.52;98187.00;4536437;31;20098;-79
2022/12/30 06:53:33;;;;;;;53.22;24.98;;;;;;;8.68;62.98;98193.34;4537037;31;19963;-79
2022/12/30 06:56:00;;;;;;;61.05;26.77;;;;;;;8.47;64.26;98191.44;4535516;31;20099;-79
2022/12/30 06:58:27;;;;;;;55.95;26.65;;;;;;;8.90;62.65;98196.88;4536023;31;20100;-79
2022/12/30 07:00:54;;;;;;;54.17;25.95;;;;;;;9.09;62.26;98216.84;4536310;31;20106;-79
2022/12/30 07:03:21;;;;;;;51.13;26.48;;;;;;;9.19;62.12;98210.50;4536449;31;20395;-79
2022/12/30 07:05:48;;;;;;;53.70;26.62;;;;;;;9.33;61.37;98221.12;4535855;31;20088;-79
2022/12/30 07:08:15;;;;;;;50.55;25.92;;;;;;;9.33;61.62;98217.72;4536135;31;20104;-79
2022/12/30 07:10:42;;;;;;;51.70;24.50;;;;;;;9.59;61.10;98219.41;4535934;31;20091;-79
2022/12/30 07:13:17;;;;;;;47.53;24.20;;;;;;;9.67;60.82;98223.34;4535735;31;20097;-79
2022/12/30 07:15:44;;;;;;;51.83;26.52;;;;;;;8.66;64.45;98224.25;4535412;31;20159;-79
2022/12/30 07:18:11;;;;;;;53.50;25.45;;;;;;;9.18;63.23;98219.09;4535434;31;20144;-79
2022/12/30 07:20:38;;;;;;;;;;;;;;;8.21;67.70;98221.38;4535452;31;20083;-79
2022/12/30 07:23:05;;;;;;;49.60;25.27;;;;;;;9.21;63.76;98224.16;4535688;31;19967;-79
2022/12/30 07:25:32;;;;;;;47.13;22.87;;;;;;;9.41;62.78;98229.44;4535223;31;20096;-79
2022/12/30 07:28:02;;;;;;;40.22;18.80;;;;;;;8.96;66.53;98222.41;4535285;31;20110;-79
2022/12/30 07:30:30;;;;;;;57.00;27.42;;;;;;;10.07;64.32;98238.19;4534976;31;20477;-79
2022/12/30 07:32:57;;;;;;;62.75;27.85;;;;;;;8.13;71.20;98239.56;4535202;31;20183;-79
2022/12/30 07:35:24;;;;;;;52.67;26.20;;;;;;;7.28;70.43;98254.81;4535320;31;20084;-79
2022/12/30 07:37:51;;;;;;;55.60;25.70;;;;;;;5.35;81.36;98260.81;4535053;31;20100;-79
2022/12/30 07:40:18;;;;;;;51.37;23.58;;;;;;;5.83;80.67;98260.72;4534950;31;20479;-79
2022/12/30 07:42:45;;;;;;;51.03;24.63;;;;;;;7.02;77.46;98268.34;4535303;31;20070;-78
2022/12/30 07:45:16;;;;;;;51.15;23.15;;;;;;;7.73;73.49;98270.72;4534784;31;20480;-79
2022/12/30 07:47:43;;;;;;;49.05;21.37;;;;;;;8.21;72.01;98261.66;4534476;31;20457;-79
2022/12/30 07:50:11;;;;;;;44.53;20.40;;;;;;;8.68;70.66;98266.19;4534998;31;20489;-79
2022/12/30 07:52:38;;;;;;;38.05;19.73;;;;;;;9.25;70.16;98272.06;4535080;31;20429;-79
2022/12/30 07:55:06;;;;;;;43.78;20.20;;;;;;;10.39;64.76;98259.38;4534610;31;20156;-79
2022/12/30 07:57:33;;;;;;;46.00;21.27;;;;;;;9.75;68.05;98264.31;4534857;31;20087;-79
2022/12/30 08:00:00;;;;;;;;;;;;;;;10.42;67.17;98257.53;4535982;31;20144;-79
2022/12/30 08:02:26;;;;;;;62.50;31.30;;;;;;;11.17;65.49;98279.50;4535215;31;19977;-79
2022/12/30 08:04:54;;;;;;;52.05;26.20;;;;;;;9.13;69.29;98280.19;4535314;31;20151;-79
2022/12/30 08:07:21;;;;;;;49.60;25.95;;;;;;;9.20;69.56;98284.25;4536866;31;20095;-79
2022/12/30 08:09:48;;;;;;;49.65;25.37;;;;;;;9.22;67.46;98290.19;4537197;31;20103;-79
2022/12/30 08:12:14;;;;;;;;;;;;;;;8.30;70.58;98295.63;4538499;31;20104;-79
2022/12/30 08:14:41;;;;;;;50.70;24.05;;;;;;;8.52;69.51;98305.31;4537652;31;19986;-79
2022/12/30 08:17:08;;;;;;;53.20;25.85;;;;;;;7.57;74.15;98304.56;4537600;31;20099;-79
2022/12/30 08:19:35;;;;;;;49.70;22.40;;;;;;;9.04;68.26;98314.81;4537355;31;20154;-79
2022/12/30 08:22:02;;;;;;;;;;;;;;;9.07;67.50;98312.12;4537689;31;20098;-79
2022/12/30 08:24:29;;;;;;;46.70;23.30;;;;;;;9.67;64.94;98323.81;4537394;31;20222;-79
2022/12/30 08:26:56;;;;;;;40.30;19.98;;;;;;;9.74;65.68;98316.75;4537370;31;20147;-79
2022/12/30 08:29:23;;;;;;;;;;;;;;;10.20;66.45;98310.75;4537552;31;20101;-79
2022/12/30 08:31:49;;;;;;;36.00;16.07;;;;;;;10.43;71.51;98308.22;4537393;31;20063;-79
2022/12/30 08:34:18;;;;;;;28.90;13.75;;;;;;;10.69;73.40;98312.38;4537129;31;20099;-79
2022/12/30 08:36:45;;;;;;;28.65;12.32;;;;;;;11.21;72.29;98318.03;4536640;31;20110;-79
2022/12/30 08:39:13;;;;;;;21.60;10.52;;;;;;;11.52;73.08;98320.19;4537296;31;20106;-79
2022/12/30 08:41:42;;;;;;;19.75;9.80;;;;;;;11.36;74.77;98318.28;4537370;31;20104;-79
2022/12/30 08:44:15;;;;;;;19.00;8.85;;;;;;;10.69;79.55;98304.62;4536887;31;20108;-79
2022/12/30 08:46:42;;;;;;;17.10;7.72;;;;;;;10.42;82.07;98306.53;4537004;31;20100;-78
2022/12/30 08:49:10;;;;;;;18.70;8.48;;;;;;;10.47;82.05;98308.09;4536810;31;20106;-79
2022/12/30 08:51:37;;;;;;;20.15;9.13;;;;;;;10.39;84.30;98303.22;4536217;31;20119;-79
2022/12/30 08:54:05;;;;;;;19.87;8.98;;;;;;;11.18;80.08;98318.16;4522270;31;20437;-79
2022/12/30 08:56:33;;;;;;;21.92;9.57;;;;;;;10.84;79.58;98322.97;4536403;31;20143;-78
2022/12/30 08:59:00;;;;;;;18.50;9.10;;;;;;;10.62;79.31;98328.97;4535930;31;20083;-78
2022/12/30 09:01:33;;;;;;;20.12;9.45;;;;;;;10.36;79.91;98331.72;4536189;31;20505;-78
2022/12/30 09:04:03;;;;;;;20.62;9.40;;;;;;;10.08;79.05;98335.25;4536137;31;20114;-78
2022/12/30 09:06:30;;;;;;;19.27;9.45;;;;;;;9.86;79.46;98337.75;4536280;31;20103;-78
2022/12/30 09:08:58;;;;;;;19.50;8.75;;;;;;;9.27;82.12;98344.97;4536483;31;20104;-78
2022/12/30 09:11:29;;;;;;;20.40;9.52;;;;;;;9.21;82.21;98348.56;4535761;31;20147;-78
2022/12/30 09:13:57;;;;;;;20.33;9.48;;;;;;;9.37;81.97;98348.91;4536382;31;20132;-78
2022/12/30 09:16:27;;;;;;;20.60;9.55;;;;;;;9.46;81.28;98347.75;4536382;31;20099;-78
2022/12/30 09:18:54;;;;;;;18.75;8.43;;;;;;;9.78;80.07;98347.53;4535775;31;20138;-78
2022/12/30 09:21:21;;;;;;;18.17;9.40;;;;;;;9.25;82.63;98346.72;4536220;31;20083;-79
2022/12/30 09:23:48;;;;;;;17.45;8.70;;;;;;;9.60;81.82;98352.44;4536359;31;20493;-78
2022/12/30 09:26:18;;;;;;;19.70;8.77;;;;;;;10.10;78.53;98358.41;4535926;31;20357;-79
2022/12/30 09:28:45;;;;;;;17.48;8.80;;;;;;;10.33;78.85;98368.78;4536276;31;20087;-79
2022/12/30 09:31:12;;;;;;;20.80;8.73;;;;;;;10.70;74.58;98365.66;4536027;31;20071;-79
2022/12/30 09:33:39;;;;;;;18.58;9.15;;;;;;;11.64;70.24;98372.25;4521592;31;20113;-79
2022/12/30 09:36:07;;;;;;;15.80;8.20;;;;;;;11.64;68.94;98364.50;4536274;31;20091;-78
2022/12/30 09:38:34;;;;;;;18.40;8.15;;;;;;;11.76;68.11;98369.16;4522052;31;20084;-79
2022/12/30 09:43:15;;;;;;;19.02;8.45;;;;;;;11.90;64.55;98372.00;4536186;31;20095;-78
2022/12/30 09:44:17;;;;;;;16.62;8.48;;;;;;;11.69;64.36;98381.47;4536467;31;20087;-78
2022/12/30 09:46:47;;;;;;;22.23;8.27;;;;;;;11.87;62.79;98383.34;4535942;31;20103;-79
2022/12/30 09:49:52;;;;;;;15.50;7.57;;;;;;;11.69;62.75;98376.31;4536208;31;20087;-78
2022/12/30 09:52:34;;;;;;;14.63;7.15;;;;;;;11.96;61.30;98378.69;4495180;31;20147;-79
2022/12/30 09:55:06;;;;;;;18.40;8.18;;;;;;;12.01;58.75;98368.97;4536236;31;20099;-78
2022/12/30 09:57:34;;;;;;;21.08;9.27;;;;;;;12.12;58.95;98379.69;4521886;31;20461;-78
2022/12/30 10:00:15;;;;;;;15.73;7.28;;;;;;;12.24;59.64;98373.16;4536083;31;20106;-79
2022/12/30 10:03:05;;;;;;;15.40;7.45;;;;;;;11.40;62.99;98376.69;4522533;31;20080;-79
2022/12/30 10:06:28;;;;;;;17.85;8.80;;;;;;;12.34;58.23;98380.44;4524600;31;20155;-79
2022/12/30 10:09:07;;;;;;;15.65;7.78;;;;;;;11.98;58.01;98389.78;4536025;31;20083;-78
2022/12/30 10:11:56;;;;;;;16.35;7.80;;;;;;;11.61;58.77;98381.00;4536239;31;20083;-79
2022/12/30 10:14:47;;;;;;;17.98;8.40;;;;;;;11.69;59.65;98383.22;4536387;31;20106;-79
2022/12/30 10:17:45;;;;;;;19.95;9.65;;;;;;;11.48;59.46;98383.25;4536176;31;20490;-79
2022/12/30 10:20:31;;;;;;;19.35;9.57;;;;;;;11.33;62.03;98381.25;4536334;31;20087;-79
2022/12/30 10:23:03;;;;;;;18.50;9.40;;;;;;;11.40;60.38;98374.97;4536003;31;20087;-79
2022/12/30 10:25:45;;;;;;;18.15;9.13;;;;;;;11.45;59.82;98380.75;4522022;31;20083;-79
2022/12/30 10:28:14;;;;;;;19.25;9.35;;;;;;;10.99;62.17;98374.03;4521687;31;20107;-79
2022/12/30 10:30:48;;;;;;;19.15;9.57;;;;;;;11.97;59.50;98388.13;4520695;31;20115;-79
2022/12/30 10:33:24;;;;;;;18.45;7.90;;;;;;;11.97;58.67;98380.34;4521946;31;20090;-79
2022/12/30 10:36:12;;;;;;;17.77;8.73;;;;;;;12.78;55.40;98364.63;4535751;31;20110;-79
2022/12/30 10:38:40;;;;;;;19.98;8.60;;;;;;;12.86;53.94;98361.66;4521514;31;20122;-79
2022/12/30 10:41:15;;;;;;;19.00;9.20;;;;;;;12.77;54.46;98360.38;4521811;31;20453;-79
2022/12/30 10:43:53;;;;;;;17.98;9.23;;;;;;;11.66;58.67;98373.88;4535651;31;20455;-79
2022/12/30 10:46:38;;;;;;;19.58;9.35;;;;;;;12.63;54.74;98383.44;4526854;31;284164;-79
2022/12/30 10:49:30;;;;;;;18.42;8.88;;;;;;;12.95;54.24;98387.13;4535329;31;20103;-79
2022/12/30 10:51:57;;;;;;;19.85;9.07;;;;;;;12.63;55.52;98380.84;4535828;31;20574;-79
2022/12/30 10:54:24;;;;;;;17.90;8.73;;;;;;;11.58;58.54;98391.44;4521513;31;20105;-79
2022/12/30 10:56:51;;;;;;;16.90;8.25;;;;;;;12.01;56.92;98387.06;4535734;31;20418;-79
2022/12/30 10:59:19;;;;;;;;;;;;;;;12.22;57.06;98396.47;4536382;31;20091;-79
2022/12/30 11:01:46;;;;;;;;;;;;;;;12.56;56.63;98400.19;4536286;31;20301;-79
2022/12/30 11:04:33;;;;;;;20.73;9.73;;;;;;;12.22;57.07;98401.66;4521208;31;20034;-79
2022/12/30 11:07:03;;;;;;;17.17;8.47;;;;;;;12.20;57.55;98403.47;4535483;31;20148;-79
2022/12/30 11:09:30;;;;;;;17.27;8.25;;;;;;;12.52;56.13;98399.47;4535585;31;20109;-78
2022/12/30 11:15:12;;;;;;;17.85;8.60;;;;;;;13.73;53.09;98391.19;4523082;31;20558;-79
2022/12/30 11:17:44;;;;;;;17.70;8.00;;;;;;;13.21;55.17;98396.31;4534641;31;20080;-79
2022/12/30 11:20:14;;;;;;;16.25;8.05;;;;;;;14.98;48.81;98403.62;4535356;31;20103;-79
2022/12/30 11:22:49;;;;;;;14.30;7.45;;;;;;;15.10;47.74;98407.31;4535675;31;20091;-79
2022/12/30 11:25:24;;;;;;;17.17;8.13;;;;;;;15.41;46.90;98416.81;4535259;31;20087;-79
2022/12/30 11:28:16;;;;;;;15.45;8.23;;;;;;;14.68;49.08;98421.72;4535568;31;20115;-79
2022/12/30 11:30:57;;;;;;;15.95;8.40;;;;;;;15.33;47.42;98419.88;4526873;31;20119;-79
2022/12/30 11:33:32;;;;;;;14.95;7.35;;;;;;;15.16;48.22;98425.16;4535049;31;20110;-79
2022/12/30 11:36:29;;;;;;;15.80;7.37;;;;;;;15.28;47.40;98426.25;4521031;31;20091;-79
2022/12/30 11:39:09;;;;;;;14.82;6.90;;;;;;;16.31;44.07;98427.22;4534999;31;20079;-79
2022/12/30 11:41:48;;;;;;;15.20;8.20;;;;;;;15.34;46.34;98423.31;4537020;31;20159;-79
2022/12/30 11:44:23;;;;;;;16.25;7.12;;;;;;;15.31;47.56;98432.13;4537937;31;20114;-79
2022/12/30 11:46:53;;;;;;;16.42;7.60;;;;;;;15.37;46.83;98440.50;4537274;31;20504;-79
2022/12/30 11:49:57;;;;;;;15.68;8.13;;;;;;;16.58;43.76;98440.34;4537276;31;20585;-79
2022/12/30 11:52:25;;;;;;;14.80;6.78;;;;;;;16.11;45.12;98440.59;4537448;31;20544;-79
2022/12/30 11:54:57;;;;;;;14.23;6.55;;;;;;;16.39;43.55;98443.22;4537386;31;20060;-79
2022/12/30 11:57:32;;;;;;;17.17;6.75;;;;;;;15.79;44.85;98438.09;4522984;31;20161;-79
2022/12/30 12:00:19;;;;;;;17.42;6.80;;;;;;;15.83;44.54;98434.38;4536805;31;20079;-79
2022/12/30 12:02:56;;;;;;;12.90;6.72;;;;;;;15.69;44.70;98447.34;4523521;31;20117;-79
2022/12/30 12:05:30;;;;;;;15.15;6.47;;;;;;;15.07;46.31;98437.81;4537206;31;20112;-79
2022/12/30 12:08:04;;;;;;;16.33;7.57;;;;;;;15.18;46.75;98436.31;4537004;31;20430;-79
2022/12/30 12:10:34;;;;;;;15.38;6.87;;;;;;;15.87;45.40;98435.06;4536827;31;20078;-79
2022/12/30 12:13:22;;;;;;;13.48;5.78;;;;;;;15.95;44.84;98434.59;4522767;31;20716;-79
2022/12/30 12:15:51;;;;;;;14.00;6.60;;;;;;;15.97;44.80;98428.38;4536875;31;20111;-79
2022/12/30 12:18:42;;;;;;;14.98;6.78;;;;;;;15.68;45.42;98432.66;4522618;31;20087;-79
2022/12/30 12:21:12;;;;;;;14.85;6.10;;;;;;;15.99;44.88;98439.53;4522351;31;20074;-79
2022/12/30 12:24:09;;;;;;;13.52;6.43;;;;;;;15.72;45.44;98439.34;4537101;31;20099;-79
2022/12/30 12:26:56;;;;;;;12.93;6.07;;;;;;;16.33;44.38;98438.37;4536720;31;20155;-79
2022/12/30 12:29:24;;;;;;;12.60;5.53;;;;;;;16.70;43.72;98420.56;4536266;31;20083;-79
2022/12/30 12:32:02;;;;;;;12.88;5.93;;;;;;;16.16;44.96;98431.59;4522219;31;20437;-79
2022/12/30 12:35:08;;;;;;;13.62;6.03;;;;;;;16.52;44.54;98432.91;4536247;31;20096;-79
2022/12/30 12:37:44;;;;;;;12.60;5.53;;;;;;;16.30;45.50;98435.97;4536581;31;20151;-79
2022/12/30 12:40:50;;;;;;;11.55;4.97;;;;;;;16.40;45.32;98431.87;4536437;31;20433;-79
2022/12/30 12:43:35;;;;;;;11.88;5.75;;;;;;;16.49;44.98;98425.28;4536334;31;20080;-79
2022/12/30 12:46:27;;;;;;;14.80;7.05;;;;;;;16.68;44.46;98436.25;4536507;31;20099;-79
2022/12/30 12:49:16;;;;;;;20.17;8.60;;;;;;;16.87;44.18;98443.78;4535950;31;20096;-79